الصفحة الرئيسية
METAR-TAF:

METAR-TAF

مطار :

هنتسفيل, ألاباما, الولايات المتحدة

دائرة عرض: 34-51-41N, خط طول: 086-33-26W, ارتفاع: 230 متر

مراقبة الطقس الحالي

تاريخ ووقت الإصدار 24 دقيقة قبل الساعة 20:35UTC
ريح 8 عقدة من الجنوب الشرقي
درجة الحرارة 31°درجة مئوية
الرطوبة 49%
ضغط 1015 hPa
الرؤية: 16.1 كم
غيوم متفرقة على ارتفاع 4800 قدم

METAR: KMDQ 252035Z AUTO 13008KT 10SM SCT048 31/19 A2998 RMK A02 T03070188

زمن: 15:59 (20:59 UTC)


TAF: مفقودة

أرصاد الطقس والتوقعات من أكثر من 4000 مطار (تقارير الطقس للمطار METAR والتنبؤ بالطقس بالمطارTAF).

المحطات المتاحة هي النقط الصفراء والحمراء على الخريطة.

حرك المؤشر فوق النقطة لمعرفة اسم المحطة.

ثم انقر لمعرفة أرصاد وتوقعات الطقس.

لتغيير الخارطة: اضغط على الأزرار الخضراء مع رمز الصليب الأسود للتكبير. على الزر الأخضر مع شرطة للتصغير، أو على الأسهم الخضراء للخرائط المجاورة.


METAR-TAF: